Date,TemperatureHighF,TemperatureAvgF,TemperatureLowF,DewpointHighF,DewpointAvgF,DewpointLowF,HumidityHigh,HumidityAvg,HumidityLow,PressureMaxIn,PressureMinIn,WindSpeedMaxMPH,WindSpeedAvgMPH,GustSpeedMaxMPH,PrecipitationSumIn
2013-1-1,44.6,24.4,13.8,14.4,2.7,-5.3,58,41,23,30.44,30.04,5,-33,13,0.00
2013-1-2,45.9,27.7,19.8,13.6,1.1,-4.7,34,31,26,30.54,30.14,8,-100,16,0.00
2013-1-3,52.2,28.5,15.4,7.2,-2.7,-8.1,35,27,16,30.60,30.10,5,-172,10,0.00
2013-1-4,59.9,36.2,25.2,14.2,-0.3,-9.2,30,21,14,30.39,29.83,4,-174,8,0.00
2013-1-5,53.1,33.9,25.3,17.2,3.8,-1.1,32,28,19,30.48,30.09,7,-64,13,0.00
2013-1-6,55.9,35.0,22.1,13.8,1.6,-4.4,33,25,15,30.47,29.84,4,-94,6,0.00
2013-1-7,65.3,43.1,32.7,15.3,3.5,-2.9,28,19,13,30.15,29.66,5,-26,11,0.00
2013-1-8,52.5,44.3,34.0,12.2,6.6,1.2,30,21,18,30.32,29.80,10,4,23,0.00
2013-1-9,68.9,43.3,29.5,15.8,6.8,1.8,34,23,12,30.46,29.87,6,-46,11,0.00
2013-1-10,43.3,37.0,31.1,13.1,6.6,-0.9,31,28,21,30.09,29.49,8,-26,14,0.00
2013-1-11,42.4,31.9,18.3,14.7,7.3,-1.8,47,36,25,30.04,29.35,9,-2,17,0.00
2013-1-12,19.6,11.0,6.3,1.6,-6.6,-11.0,47,44,37,30.41,30.01,6,-96,11,0.00
2013-1-13,23.0,10.3,4.1,3.9,-8.0,-12.6,46,43,39,30.49,30.20,5,-295,11,0.00
2013-1-14,25.5,10.8,4.8,5.4,-9.4,-14.3,47,39,36,30.59,30.20,5,-191,10,0.00
2013-1-15,28.6,17.1,3.2,3.7,-5.7,-17.3,44,36,32,30.53,30.23,5,-178,8,0.00
2013-1-16,63.5,38.7,25.0,22.5,10.1,3.0,42,31,18,30.49,29.99,5,-68,11,0.00
2013-1-17,63.0,39.9,27.3,21.0,8.6,0.9,41,29,16,30.64,30.08,5,-212,9,0.00
2013-1-18,65.5,45.5,34.3,13.3,3.5,-2.9,22,18,13,30.31,29.86,10,4,19,0.00
2013-1-19,69.8,50.3,40.8,14.9,5.3,-1.5,18,16,12,30.29,29.90,12,4,22,0.00
2013-1-20,59.0,39.6,28.9,12.9,1.5,-3.6,31,20,14,30.42,30.02,8,3,16,0.00
2013-1-21,61.5,39.4,21.2,14.7,5.8,0.9,44,27,14,30.46,29.88,10,-17,16,0.00
2013-1-22,69.1,53.0,45.0,14.4,6.6,0.0,17,15,12,30.18,29.83,13,5,25,0.00
2013-1-23,51.8,45.0,38.5,7.0,1.6,-4.0,17,16,14,30.26,30.04,7,-79,10,0.00
2013-1-24,69.4,50.4,37.4,18.0,6.2,-1.1,23,17,12,30.20,29.72,14,5,26,0.00
2013-3-21,37.9,37.9,37.9,4.3,4.3,4.3,24,24,24,29.91,29.91,7,7,9,0.00
2013-3-22,46.8,36.3,28.9,26.1,12.6,2.8,75,40,24,30.09,29.62,10,-73,23,0.00
2013-3-23,28.9,22.0,16.7,21.4,17.0,11.8,87,81,68,30.50,30.09,11,-2,20,0.00
2013-3-24,34.2,20.3,10.9,23.5,12.9,5.7,81,73,58,30.51,30.20,5,-89,10,0.00
2013-3-25,48.9,26.3,17.2,27.0,13.0,7.0,78,59,33,30.57,30.13,5,-63,10,0.04
2013-3-26,36.9,24.4,21.2,19.2,9.3,6.8,54,52,46,30.40,30.13,4,-86,8,0.00
2013-3-27,68.7,43.7,32.5,37.2,24.1,17.4,57,47,28,30.19,29.76,5,-89,11,0.00
2013-3-28,73.2,49.5,35.6,33.3,26.8,23.9,66,44,23,30.22,29.75,6,-52,11,0.00
2013-3-29,64.2,52.9,43.2,27.3,23.5,20.8,42,32,24,30.18,29.88,11,-21,24,0.00
2013-3-30,67.8,51.8,41.7,30.7,22.8,14.9,48,34,15,30.21,29.82,15,-32,29,0.00
2013-3-31,85.5,55.3,37.6,27.0,21.4,11.3,57,32,11,30.09,29.56,7,-109,14,0.00
2013-4-1,56.8,45.3,36.9,29.8,21.9,14.9,57,40,22,30.24,29.89,9,-10,19,0.00
2013-4-2,41.2,39.0,36.7,31.8,28.1,24.4,81,65,55,30.24,30.13,5,3,10,0.13
2013-4-3,71.4,48.8,36.5,35.8,30.0,21.2,78,54,23,30.23,29.80,5,-240,11,0.04
2013-4-4,83.5,57.2,42.4,32.4,23.4,15.3,45,30,13,30.21,29.65,6,-36,11,0.00
2013-4-5,74.5,60.0,50.2,27.7,21.3,15.8,37,23,13,29.94,29.45,16,4,31,0.00
2013-4-6,72.7,56.1,46.6,25.9,18.6,14.4,28,24,14,29.96,29.58,8,0,20,0.00
2013-4-7,70.7,55.8,45.3,27.3,20.9,15.1,39,26,14,29.86,29.46,12,6,25,0.00
2013-4-8,62.6,48.8,30.9,29.5,23.2,17.2,72,38,26,29.99,29.26,18,-21,29,0.00
2013-4-9,30.2,21.2,15.1,21.9,11.7,3.7,76,66,59,30.54,30.00,9,6,18,0.00
2013-4-10,32.9,20.4,10.6,15.8,6.6,-0.9,60,55,47,30.54,30.11,5,3,11,0.08
2013-4-11,56.1,37.6,21.2,30.9,20.4,9.0,69,51,38,30.09,29.65,8,3,18,0.00
2013-4-12,59.0,45.3,35.2,30.4,24.9,21.6,59,46,25,30.04,29.74,14,-27,28,0.00
2013-4-13,68.0,51.8,34.0,26.6,22.4,16.2,64,35,15,30.03,29.21,10,-53,18,0.00
2013-4-14,55.0,44.6,38.1,30.9,16.8,9.5,53,34,20,29.84,29.48,12,6,22,0.12
2013-4-15,39.6,31.1,25.0,22.8,17.5,9.3,74,59,29,30.25,29.78,7,-33,16,0.00
2013-4-16,34.9,28.9,24.4,26.4,20.1,14.7,85,70,59,30.25,29.93,11,-72,20,0.00
2013-4-17,33.8,27.6,21.7,27.0,23.2,16.9,89,83,73,30.42,30.02,8,-507,15,0.00
2013-4-18,46.6,28.8,17.2,23.5,14.8,5.9,82,59,32,30.42,30.06,6,-626,10,0.17
2013-4-19,55.4,41.7,30.6,21.4,13.1,6.1,37,31,25,30.29,29.84,11,-2,26,0.09
2013-4-20,65.5,48.8,37.4,31.6,22.9,16.0,47,37,26,30.01,29.69,6,-27,16,0.00
2013-4-22,26.8,26.3,25.9,18.0,17.0,16.2,70,67,66,30.52,30.48,5,3,8,0.00
2013-4-23,44.8,30.4,23.4,19.4,14.1,8.2,65,52,31,30.53,30.15,5,-4,8,0.16
2013-4-24,61.9,41.6,26.6,23.7,14.0,7.0,45,34,19,30.39,29.97,7,-19,12,0.00
2013-4-25,70.7,50.1,35.6,25.0,15.8,7.3,32,26,17,30.27,29.71,6,-12,11,0.00
2013-4-26,76.3,57.3,43.7,26.1,18.2,11.1,32,23,13,30.20,29.90,6,-4,14,0.00
2013-4-27,79.2,61.1,48.0,22.3,14.7,10.0,24,17,10,30.22,29.76,6,-67,15,0.00
2013-4-28,81.5,66.2,55.4,23.9,14.9,8.4,18,14,9,29.99,29.56,9,-3,22,0.00
2013-4-29,77.5,66.1,52.9,28.0,20.9,12.0,35,19,11,29.87,29.40,12,4,21,0.00
2013-4-30,65.3,55.8,42.8,34.2,25.0,11.3,57,32,13,30.09,29.52,12,4,21,0.00
2013-5-1,42.6,33.9,25.9,28.6,25.3,17.8,78,71,53,30.86,30.10,7,-719,14,0.04
2013-5-2,55.6,35.9,23.5,23.9,17.3,12.0,71,49,27,30.93,30.38,4,-447,9,0.17
2013-5-3,64.9,47.9,32.9,28.6,20.5,14.4,49,35,24,30.52,29.93,7,-180,13,0.00
2013-5-4,61.2,50.3,40.6,31.1,23.3,17.2,48,35,27,30.24,29.99,6,-17,13,0.00
2013-5-5,57.0,48.6,38.8,27.3,21.9,15.3,42,35,29,30.29,30.01,5,-11,10,0.00
2013-5-6,68.4,54.1,42.8,34.3,26.9,21.6,51,36,26,30.14,29.76,6,-88,11,0.00
2013-5-7,72.9,57.7,49.3,37.6,31.1,26.4,54,37,22,30.01,29.65,9,-11,16,0.04
2013-5-8,60.3,50.4,47.1,42.1,35.9,29.3,78,58,37,30.11,29.85,9,-10,16,0.29
2013-5-9,61.0,51.2,46.4,42.4,37.6,31.1,79,61,35,30.21,30.03,10,-67,22,0.04
2013-5-10,71.6,54.9,43.3,36.7,32.0,27.9,57,43,23,30.27,29.98,8,-60,20,0.00
2013-5-11,66.7,57.1,48.7,39.7,31.7,27.1,48,39,26,30.42,30.08,7,-75,19,0.04
2013-5-12,84.2,65.7,52.7,36.7,30.9,26.6,43,28,16,30.22,29.78,6,-54,12,0.00
2013-5-13,88.0,72.5,60.4,36.7,28.1,22.6,25,20,10,30.07,29.73,5,-18,11,0.00
2013-5-14,78.8,70.7,64.4,33.1,28.5,23.9,23,21,17,29.91,29.70,9,-39,21,0.00
2013-5-15,82.9,66.5,59.9,45.0,34.1,25.3,55,32,20,29.93,29.57,10,-22,18,0.29
2013-5-16,80.4,66.4,55.0,43.2,36.5,29.1,57,36,19,29.87,29.49,6,-40,13,0.00
2013-5-17,88.2,70.8,57.6,36.3,25.7,14.2,39,22,8,29.85,29.39,8,-95,13,0.00
2013-5-18,79.0,67.0,60.1,32.7,23.2,10.9,27,19,12,29.83,29.50,8,-43,15,0.00
2013-5-19,71.8,61.5,55.2,30.4,25.7,22.3,32,26,18,29.80,29.55,8,-39,18,0.00
2013-5-20,66.9,57.3,51.3,41.5,32.9,23.2,68,40,28,30.02,29.71,9,-11,16,0.00
2013-5-21,76.6,58.8,47.1,35.4,30.4,23.7,55,37,19,30.06,29.61,8,-64,17,0.00
2013-5-26,78.1,72.4,68.2,32.4,28.5,25.5,22,20,18,29.73,29.59,5,3,11,0.00
2013-5-27,76.5,68.9,60.3,27.7,21.3,14.7,25,17,11,29.79,29.59,6,-12,14,0.00
2013-5-28,77.9,65.3,54.7,39.0,28.7,18.5,41,26,13,29.81,29.33,8,-18,22,0.00
2013-5-29,68.5,59.5,52.7,46.0,36.8,22.6,69,45,24,29.67,29.43,8,-11,17,0.29
2013-5-30,70.3,60.4,54.0,27.3,23.1,19.6,29,24,17,29.82,29.54,12,7,27,0.00
2013-5-31,73.6,61.4,52.3,21.6,15.9,10.8,25,17,11,29.93,29.68,13,6,27,0.00
2013-6-1,77.9,61.4,51.6,34.9,28.4,10.2,42,29,14,30.15,29.88,6,-116,12,0.00
2013-6-2,85.6,64.8,50.5,32.7,26.1,21.2,37,25,11,30.15,29.52,4,-187,9,0.00
2013-6-3,87.8,73.6,61.0,31.8,21.2,16.2,23,15,8,29.77,29.39,8,-32,20,0.00
2013-6-4,71.1,63.8,54.9,44.4,34.5,12.2,58,36,12,30.20,29.77,10,-11,21,0.05
2013-6-5,60.6,54.6,51.1,42.1,39.0,34.9,62,56,45,30.24,30.03,4,-98,7,0.00
2013-6-6,80.1,62.3,48.4,42.4,36.7,29.1,61,42,21,30.11,29.75,5,-98,10,0.00
2013-6-7,77.9,66.4,56.5,38.3,32.6,27.9,43,29,21,30.04,29.62,9,-108,28,0.00
2013-6-8,82.4,70.3,64.9,40.1,34.1,28.2,38,27,21,29.93,29.62,8,-57,17,0.00
2013-6-9,93.7,71.6,57.0,37.4,31.5,24.3,38,25,9,30.00,29.51,4,-124,10,0.00
2013-6-10,97.5,80.8,68.5,34.7,25.5,17.1,23,14,6,29.80,29.44,8,-12,17,0.00
2013-6-11,95.7,81.6,70.0,32.0,21.1,16.2,22,11,6,29.76,29.39,8,-57,17,0.00
2013-6-12,90.5,78.2,67.8,36.3,22.6,13.3,25,13,10,30.02,29.62,7,-37,13,0.00
2013-6-13,85.3,70.4,61.0,49.3,44.4,30.2,57,41,18,30.06,29.58,8,-39,21,0.00
2013-6-14,90.3,77.5,69.8,37.2,31.7,24.6,25,19,10,29.82,29.54,8,-17,18,0.00
2013-6-15,83.7,68.9,60.4,46.2,39.3,32.4,44,35,24,30.03,29.68,7,-60,16,0.00
2013-6-16,79.9,69.5,61.7,44.1,37.3,28.8,50,32,20,30.01,29.82,10,-57,20,0.00
2013-6-17,88.7,69.3,59.7,41.0,34.9,27.9,37,29,15,30.07,29.70,6,-131,13,0.00
2013-6-18,81.3,67.6,58.1,45.7,41.7,35.4,59,41,20,30.09,29.63,8,-25,20,0.00
2013-6-19,87.3,72.2,59.0,43.7,33.9,14.9,55,29,10,29.92,29.35,6,-124,13,0.00
2013-6-20,86.9,73.3,63.0,36.3,26.8,12.7,33,19,11,29.84,29.50,5,-67,10,0.00
2013-6-21,83.5,74.2,64.0,45.7,29.9,16.2,44,22,9,29.85,29.52,12,-71,30,0.00
2013-6-22,90.0,70.8,61.3,42.4,37.8,31.8,40,31,18,29.91,29.41,5,-96,15,0.00
2013-6-23,80.2,67.9,59.4,46.8,38.6,33.3,56,35,21,29.97,29.57,6,-75,12,0.16
2013-6-24,92.3,72.2,59.5,45.3,35.9,20.8,54,31,12,29.87,29.38,5,-35,13,0.00
2013-6-25,90.0,77.1,66.7,31.5,24.1,17.6,22,14,10,29.83,29.54,6,-37,17,0.00
2013-6-26,102.0,79.1,66.0,36.1,29.1,22.3,28,17,7,29.98,29.57,4,-138,10,0.00
2013-6-27,103.3,81.9,72.0,36.5,28.7,21.0,21,15,7,30.04,29.70,5,-50,11,0.00
2013-6-28,88.3,77.1,68.0,52.7,40.7,30.6,57,28,17,30.15,29.81,10,-54,20,0.29
2013-6-29,89.2,72.1,64.0,49.6,46.7,42.1,55,42,23,30.13,29.79,6,-121,16,0.00
2013-6-30,77.0,69.1,64.0,51.3,47.5,41.7,56,47,34,30.12,29.95,5,-40,11,0.00
2013-7-1,83.7,69.3,61.0,49.5,46.1,39.9,57,45,25,30.20,29.92,7,-108,19,0.13
2013-7-2,89.1,69.4,59.4,50.5,45.1,34.0,66,45,19,30.20,29.80,4,-170,12,0.00
2013-7-3,86.7,72.0,61.9,42.8,38.7,34.7,46,31,19,30.02,29.61,5,-170,10,0.00
2013-7-4,84.4,74.3,66.4,40.6,36.6,33.3,34,26,20,29.89,29.67,10,-117,20,0.00
2013-7-5,83.7,74.0,67.5,49.6,41.7,36.9,41,32,21,29.81,29.57,9,-25,20,0.00
2013-7-6,84.6,73.6,69.3,58.1,43.4,36.5,58,35,19,29.87,29.67,10,-55,20,0.33
2013-7-7,86.7,74.0,67.1,49.5,44.0,37.4,48,35,20,29.94,29.68,4,-48,9,0.00
2013-7-8,93.2,76.5,67.8,48.0,40.7,30.4,46,30,13,29.96,29.68,8,-102,18,0.00
2013-7-9,90.3,79.0,70.2,42.1,35.0,28.4,32,21,11,30.03,29.79,9,-131,18,0.00
2013-7-10,89.6,75.5,66.9,50.5,41.5,32.2,39,30,18,30.12,29.68,4,-61,10,0.00
2013-7-11,91.4,75.6,66.2,52.0,44.8,35.6,53,36,17,29.96,29.52,9,-147,23,0.21
2013-7-12,85.3,73.7,69.6,54.3,47.2,40.5,58,40,23,29.92,29.69,7,-130,13,0.04
2013-7-13,83.3,71.0,64.9,57.2,53.5,46.2,74,56,30,30.11,29.75,6,-103,13,0.41
2013-7-14,80.2,69.4,61.5,56.7,53.8,48.9,74,59,36,30.11,29.89,5,-82,12,0.00
2013-7-15,75.4,69.9,66.9,60.4,53.9,39.9,76,59,36,30.08,29.90,6,-98,15,0.09
2013-7-16,86.4,69.9,60.1,47.5,42.1,35.2,59,39,19,30.11,29.83,6,-71,20,0.00
2013-7-17,92.8,73.4,62.4,51.3,44.2,35.1,60,38,17,30.17,29.72,4,-128,12,0.00
2013-7-18,85.5,74.5,67.3,47.7,43.4,37.9,45,34,21,30.06,29.80,8,-102,17,0.00
2013-7-19,86.0,74.0,67.5,50.7,47.2,45.1,51,39,29,30.07,29.82,6,-131,12,0.00
2013-7-20,86.0,72.4,64.6,50.4,45.3,38.8,49,39,22,29.96,29.65,9,-176,21,0.00
2013-7-21,91.4,73.2,61.5,53.2,47.8,41.5,58,42,21,29.90,29.56,6,-54,11,0.00
2013-7-22,97.9,79.3,68.5,50.0,42.3,32.2,47,29,16,29.87,29.53,5,-80,9,0.00
2013-7-23,90.1,77.9,70.9,45.1,34.1,22.5,34,21,16,29.98,29.72,5,-70,11,0.00
2013-7-24,84.6,73.4,66.0,53.4,45.4,34.7,50,38,20,30.07,29.81,10,-62,21,0.00
2013-7-25,74.1,66.5,61.9,54.7,47.7,44.4,66,51,37,30.18,29.98,10,-183,22,0.08
2013-7-26,88.5,70.4,61.3,47.3,42.8,35.6,53,39,19,30.23,29.81,7,-206,15,0.00
2013-7-27,77.4,68.0,61.2,53.2,44.8,38.8,64,44,35,30.08,29.83,4,-120,10,0.08
2013-7-28,74.5,65.3,61.0,57.7,54.1,51.4,79,68,48,30.01,29.77,4,-207,8,0.08
2013-7-29,77.4,65.4,60.8,57.6,52.5,45.0,80,64,41,30.07,29.85,6,-136,13,0.05
2013-7-30,84.4,70.3,61.3,48.2,43.8,36.0,54,40,22,30.16,29.88,8,-144,20,0.00
2013-7-31,87.4,73.4,63.5,45.1,41.8,36.5,49,34,18,30.24,29.82,5,-77,11,0.00
2013-8-1,82.2,73.2,62.1,48.9,42.9,34.5,55,36,19,30.11,29.72,7,-97,15,0.00
2013-8-2,90.3,75.0,64.4,45.5,40.9,34.9,48,31,17,29.95,29.64,6,-56,14,0.00
2013-8-3,86.4,72.6,63.3,52.7,46.4,38.1,64,41,19,30.24,29.76,9,-68,21,0.29
2013-8-4,83.5,70.2,61.2,50.7,45.0,37.2,57,42,22,30.17,29.82,5,-5,12,0.00
2013-8-5,79.2,72.1,66.4,46.0,42.0,36.9,44,34,25,29.99,29.83,6,-117,15,0.00
2013-8-6,81.7,70.3,64.6,46.2,41.7,35.2,44,36,21,29.97,29.73,7,-67,22,0.08
2013-8-7,76.1,67.2,63.1,48.9,43.5,37.6,56,43,33,30.06,29.86,5,-100,10,0.00
2013-8-8,74.1,65.0,60.3,54.5,49.7,38.7,74,59,36,30.12,29.91,6,-13,12,0.00
2013-8-9,73.8,65.4,58.3,45.9,41.3,38.5,58,42,31,30.17,29.95,6,-125,11,0.00
2013-8-10,84.0,67.0,58.3,49.8,40.3,34.7,51,39,21,30.20,29.81,7,-61,23,0.33
2013-8-11,79.5,69.1,61.7,45.3,41.9,37.6,49,38,29,30.10,29.89,5,-157,11,0.00
2013-8-12,79.0,67.9,61.0,52.7,44.1,39.2,71,43,30,30.21,29.90,8,-68,15,0.13
2013-8-13,74.8,65.0,57.4,51.1,44.4,38.5,72,49,32,30.21,29.98,7,-26,15,0.08
2013-8-14,80.6,67.4,57.6,48.6,42.6,37.9,66,43,23,30.20,29.85,4,-158,11,0.00
2013-8-15,83.3,70.2,62.1,45.0,37.6,32.5,42,31,20,30.08,29.82,5,-92,10,0.00
2013-8-16,89.4,74.1,63.3,40.8,36.5,33.4,36,26,18,30.11,29.76,4,-187,9,0.00
2013-8-17,90.7,76.3,65.3,42.4,35.8,29.8,41,24,14,30.05,29.68,3,-212,6,0.00
2013-8-18,87.8,75.8,66.4,46.0,37.8,29.1,42,27,18,30.00,29.74,7,-138,14,0.00
2013-8-19,95.0,78.0,66.0,41.4,34.8,29.5,34,22,10,30.03,29.64,4,-125,10,0.00
2013-8-20,91.8,79.8,70.5,41.5,31.9,24.4,30,18,9,29.92,29.63,5,-109,10,0.00
2013-8-21,89.8,76.1,68.5,55.4,38.9,30.0,58,28,18,30.04,29.72,8,-145,18,0.33
2013-8-22,80.6,69.7,64.2,56.1,51.0,46.8,61,52,40,30.15,29.87,5,-173,9,0.04
2013-8-23,80.6,69.0,63.5,54.3,49.5,43.3,66,51,31,30.11,29.73,6,-6,12,0.17
2013-8-24,78.6,71.0,63.1,50.7,44.8,41.7,48,39,31,29.99,29.83,7,-167,13,0.00
2013-8-25,83.7,73.2,66.0,46.9,43.8,40.8,45,35,26,30.04,29.81,6,-97,10,0.00
2013-8-26,83.3,73.6,66.2,48.7,45.9,42.6,49,38,29,30.03,29.82,6,-173,13,0.00
2013-8-27,86.0,75.8,67.6,49.6,45.9,42.4,43,35,28,30.04,29.75,4,-323,10,0.00
2013-8-28,86.9,76.3,68.4,46.6,42.7,39.6,42,31,21,30.01,29.75,4,-236,10,0.00
2013-8-29,90.5,76.9,69.3,43.7,39.0,35.6,36,26,19,30.04,29.78,9,-110,19,0.00
2013-8-30,80.8,75.4,71.2,46.2,41.3,35.8,35,30,23,30.08,29.88,8,-235,13,0.00
2013-8-31,82.9,74.2,67.6,47.5,41.3,37.2,44,31,23,30.01,29.79,9,-61,17,0.00
2013-9-1,78.8,70.6,64.6,52.7,48.4,39.6,63,46,32,30.14,29.90,5,-155,10,0.00
2013-9-2,99.1,74.8,63.7,50.4,44.9,36.1,56,38,16,30.06,29.62,4,-363,9,0.00
2013-9-3,93.4,78.1,69.4,45.9,40.8,36.7,39,27,18,30.00,29.68,6,-162,13,0.00
2013-9-4,84.9,76.8,71.8,45.9,42.2,39.7,38,29,23,30.07,29.88,4,-270,9,0.00
2013-9-5,96.6,76.2,67.5,47.8,42.7,37.9,45,31,17,30.13,29.72,5,-274,9,0.00
2013-9-6,98.8,78.8,69.1,45.0,39.3,35.4,34,25,15,30.04,29.63,6,-285,14,0.00
2013-9-7,101.8,78.9,68.4,44.6,38.3,30.0,35,25,10,30.02,29.56,4,-216,10,0.00
2013-9-8,91.9,75.7,67.8,42.4,37.2,32.9,33,25,18,29.91,29.52,5,-215,10,0.00
2013-9-9,78.4,68.5,60.6,54.0,44.8,38.1,70,45,28,30.02,29.67,7,-164,16,0.61
2013-9-10,64.9,61.5,60.1,56.5,54.1,51.4,81,77,71,30.15,29.98,4,-109,11,0.37
2013-9-11,66.9,62.2,60.6,60.6,57.3,55.0,90,84,76,30.16,30.05,4,-131,10,1.66
2013-9-12,63.5,61.0,58.8,61.0,58.3,56.3,92,91,90,30.22,30.10,5,-4,12,1.24
2013-9-13,74.7,63.3,58.5,62.4,57.6,54.7,92,82,59,30.13,29.71,4,-250,8,0.41
2013-9-14,72.9,63.9,59.5,59.4,54.1,48.2,84,72,45,29.98,29.70,4,-153,9,0.04
2013-9-15,61.3,59.1,56.7,53.4,52.0,50.2,83,77,70,30.24,29.98,6,-104,13,0.30
2013-9-16,84.9,63.2,55.9,58.3,51.9,47.8,85,69,39,30.24,29.73,3,-118,6,0.03
2013-9-17,97.7,69.7,58.8,49.1,41.8,36.1,64,40,17,30.02,29.43,4,-153,10,0.00
2013-9-18,77.0,68.9,63.0,43.9,36.6,31.5,37,31,23,29.82,29.60,11,-51,24,0.00
2013-9-19,69.8,62.0,57.6,40.1,34.8,30.7,42,36,27,30.16,29.78,4,-138,9,0.00
2013-9-20,88.3,61.5,50.7,46.6,37.0,34.0,55,42,21,30.21,29.70,4,-216,8,0.00
2013-9-21,84.6,66.2,54.5,40.5,35.3,30.4,46,33,21,30.03,29.55,4,-129,11,0.00
2013-9-22,73.8,65.6,58.1,43.2,35.4,27.3,57,33,26,29.74,29.43,8,-40,18,0.05
2013-9-23,74.3,58.2,51.4,43.9,33.7,22.6,74,44,22,30.04,29.56,10,-3,20,0.61
2013-9-24,90.3,61.4,48.7,41.0,28.3,22.1,42,29,18,30.16,29.57,4,-110,9,0.00
2013-9-25,93.6,64.3,50.2,48.7,33.4,24.6,49,33,20,29.81,29.08,5,-12,11,0.00
2013-9-26,85.8,61.0,52.3,48.0,33.9,26.6,45,37,23,29.80,29.36,6,-191,13,0.00
2013-9-27,58.1,50.7,43.2,42.1,39.2,33.6,73,65,45,30.09,29.69,5,-33,10,0.17
2013-9-28,87.6,54.2,41.7,41.0,25.2,19.4,55,34,18,30.18,29.70,9,-68,23,0.00
2013-9-29,79.5,61.6,49.3,34.9,25.1,18.7,31,25,19,30.11,29.65,7,-90,15,0.00
2013-9-30,101.3,68.4,58.1,43.0,28.6,19.9,31,23,11,29.87,29.32,5,-33,11,0.00
2013-10-1,86.9,64.8,56.7,40.6,29.2,18.5,36,27,18,30.04,29.61,5,-89,12,0.00
2013-10-2,95.9,64.4,53.4,42.4,32.5,29.8,44,32,14,29.97,29.44,5,-264,13,0.00
2013-10-3,61.7,54.7,47.8,39.2,33.2,28.2,61,45,35,29.90,29.66,5,-112,10,0.03
2013-10-4,52.0,40.2,34.9,39.4,28.9,19.4,74,64,50,30.34,29.76,8,-60,16,0.38
2013-10-5,75.2,45.4,32.2,27.7,18.3,9.5,61,38,15,30.37,29.85,8,-179,17,0.00
2013-10-6,86.4,54.4,41.0,38.3,21.0,9.1,39,28,18,30.37,29.86,4,-128,8,0.00
2013-10-7,96.3,60.6,46.9,39.6,24.9,18.5,40,27,9,30.19,29.52,3,-258,7,0.00
2013-10-8,91.4,64.7,56.8,39.4,23.8,15.6,26,21,12,29.85,29.32,4,-145,8,0.00
2013-10-9,73.9,58.3,53.1,40.8,28.7,20.7,46,33,25,29.96,29.70,5,-117,11,0.00
2013-10-10,58.1,52.0,47.5,39.9,35.8,27.9,68,54,45,29.96,29.52,11,-139,18,0.12
2013-10-11,64.9,53.1,47.5,31.1,26.2,22.5,51,36,28,30.07,29.47,7,-3,22,0.00
2013-10-12,63.7,49.0,42.4,39.2,33.2,28.0,68,55,38,30.26,29.92,5,-93,13,0.00
2013-10-13,60.4,49.4,41.2,39.0,33.2,28.2,62,54,44,30.22,29.86,4,-166,9,0.00
2013-10-14,58.8,49.4,43.9,34.9,31.0,24.4,62,50,37,30.23,29.83,8,-82,23,0.00
2013-10-15,43.9,40.6,38.3,24.3,19.7,17.2,46,43,40,30.44,30.23,4,-89,9,0.00
2013-10-16,68.7,42.9,32.9,36.9,21.9,17.8,57,44,28,30.33,29.80,4,-159,10,0.00
2013-10-17,55.0,43.4,37.6,29.3,21.4,17.1,46,41,37,30.27,29.96,4,-5,9,0.00
2013-10-18,63.9,40.3,33.8,34.9,24.1,18.9,68,54,33,30.35,29.92,6,-96,11,0.17
2013-10-19,69.3,50.0,37.4,27.7,18.8,15.3,46,30,19,30.17,29.72,8,3,15,0.00
2013-10-20,53.8,47.0,38.7,27.5,22.0,16.0,62,39,23,30.25,29.83,8,-47,19,0.08
2013-10-21,74.1,46.0,34.3,36.5,24.4,18.3,63,45,23,30.35,29.81,6,-152,13,0.04
2013-10-22,78.1,54.0,44.2,36.7,22.7,16.0,37,30,21,30.26,29.84,5,-68,9,0.00
2013-10-23,79.7,54.9,46.6,37.4,23.7,17.8,36,30,21,30.22,29.83,5,-139,10,0.00
2013-10-24,61.5,47.1,39.0,36.3,26.6,21.6,55,45,32,30.40,30.05,7,-288,15,0.00
2013-10-25,73.6,51.6,40.1,36.5,27.3,23.0,53,41,25,30.30,29.85,4,-579,9,0.00
2013-10-26,76.1,53.4,43.9,35.6,25.0,20.3,44,34,22,30.41,29.97,4,-195,12,0.00
2013-10-27,76.1,56.5,44.8,31.3,20.7,15.6,31,25,17,30.12,29.58,7,-57,17,0.00
2013-10-28,54.3,41.9,35.6,24.3,21.3,16.3,61,46,23,30.18,29.85,6,-4,13,0.00
2013-10-29,38.1,36.4,34.9,27.3,25.6,23.5,67,64,61,30.16,29.98,3,-104,6,0.05
2013-10-30,42.8,37.7,33.8,34.0,28.8,20.8,79,70,49,30.02,29.84,5,-111,11,0.12
2013-10-31,60.1,44.8,38.1,24.1,17.1,14.5,47,33,25,29.93,29.69,13,6,31,0.00
2013-11-1,64.4,46.0,39.7,27.9,19.0,13.5,44,34,24,30.29,29.91,9,-11,16,0.00
2013-11-2,77.2,47.3,34.9,34.2,18.1,12.4,40,32,21,30.34,29.60,4,-105,6,0.00
2013-11-3,72.0,54.7,45.1,23.9,14.5,9.9,29,21,13,29.89,29.33,8,3,20,0.00
2013-11-4,44.8,38.5,33.8,18.5,13.1,8.6,46,35,30,30.16,29.89,6,-46,13,0.00
2013-11-5,53.8,36.3,32.2,19.2,9.4,-0.9,46,34,18,30.33,29.99,10,-31,22,0.00
2013-11-6,55.9,42.1,31.3,16.0,8.6,-1.3,29,25,20,30.40,30.12,11,5,29,0.00
2013-11-7,67.1,46.3,34.9,29.1,14.9,6.6,32,28,23,30.55,30.00,10,-4,21,0.00
2013-11-8,72.0,52.6,40.3,22.8,14.8,10.2,31,23,14,30.07,29.62,8,-4,20,0.00
2013-11-9,73.8,51.4,41.9,31.3,18.5,10.4,33,27,21,30.30,29.85,6,-29,13,0.00
2013-11-10,77.7,50.7,37.6,33.4,18.0,9.5,42,29,16,30.37,29.85,4,-132,8,0.00
2013-11-11,62.4,49.4,36.9,24.3,15.8,9.9,42,27,21,30.79,30.12,9,-275,15,0.00
2013-11-12,70.7,45.1,33.4,33.1,21.3,15.4,60,40,25,30.80,30.21,4,-698,7,0.00
2013-11-13,67.1,52.1,40.8,25.3,14.8,8.4,38,24,13,30.44,29.89,3,-631,10,0.00
2013-11-14,68.5,53.1,45.3,29.3,19.5,11.1,37,27,17,30.12,29.68,4,-400,13,0.00
2013-11-15,64.9,49.8,37.9,17.6,12.8,7.3,37,24,13,29.81,29.33,6,-509,13,0.00
2013-11-16,60.4,47.4,40.6,21.4,14.5,10.2,45,27,16,29.61,29.18,8,-354,20,0.00
2013-11-17,65.3,46.2,37.2,17.8,12.0,7.5,43,26,12,30.13,29.60,7,-65,19,0.00
2013-11-18,78.4,48.1,32.2,17.2,9.1,2.8,32,22,10,30.30,29.70,4,-592,9,0.00
2013-11-19,66.4,49.6,41.0,20.1,10.7,1.8,27,21,16,30.07,29.54,5,-494,12,0.00
2013-11-20,65.5,51.8,36.9,26.6,17.5,11.3,43,26,18,30.17,29.58,10,-379,19,0.00
2013-11-21,36.5,22.8,17.6,18.3,5.5,-0.2,51,47,43,30.89,30.17,6,-188,11,0.00
2013-11-22,34.3,26.5,18.1,12.7,8.5,2.7,53,46,40,30.85,30.57,5,-585,12,0.00
2013-11-23,38.8,29.8,26.4,17.1,10.6,7.2,48,44,40,30.81,30.50,1,-887,6,0.00
2013-11-24,36.9,30.2,24.1,18.9,14.2,9.1,55,51,40,30.50,30.08,5,-781,12,0.00
2013-11-25,46.0,37.1,33.3,23.0,15.8,12.2,49,42,36,30.43,30.10,6,-453,13,0.00
2013-11-26,62.8,40.3,30.0,27.3,15.6,8.4,49,38,24,30.58,30.12,2,-817,8,0.00
2013-11-27,71.8,45.8,31.1,29.1,13.6,7.0,39,29,14,30.37,29.75,4,-622,8,0.00
2013-11-28,59.9,42.7,35.4,25.9,15.0,9.0,40,33,26,30.32,29.97,4,-682,7,0.00
2013-11-29,68.5,48.3,34.3,24.6,13.9,6.1,44,27,12,30.24,29.84,2,-605,8,0.00
2013-11-30,68.4,48.7,38.8,20.8,7.2,1.8,23,18,12,30.26,29.88,2,-663,7,0.00
2013-12-1,61.3,48.2,38.1,17.4,10.5,3.2,28,22,16,30.22,29.78,7,-286,23,0.00
2013-12-2,67.8,53.2,45.3,18.5,13.5,8.1,27,21,13,29.83,29.42,5,-138,30,0.00
2013-12-3,54.3,39.7,17.8,18.5,8.4,-0.4,44,28,19,30.05,29.39,9,-78,17,0.00
2013-12-4,17.6,11.9,4.5,-0.2,-5.4,-12.3,45,45,44,30.50,30.05,3,-454,8,0.00
2013-12-5,21.9,5.9,-1.3,2.3,-13.0,-20.0,45,41,35,30.61,30.18,5,-649,9,0.00
2013-12-6,14.5,1.8,-4.9,-3.5,-17.1,-25.1,44,40,36,30.77,30.45,2,-839,6,0.00
2013-12-7,20.3,3.1,-4.0,1.4,-14.1,-20.4,48,44,43,30.74,30.29,2,-795,6,0.00
2013-12-8,34.5,11.8,1.2,12.4,-7.6,-16.1,50,41,33,30.43,29.87,3,-638,8,0.00
2013-12-9,37.9,15.4,-0.9,4.3,-9.9,-20.6,44,32,19,30.61,30.05,6,-103,19,0.00
2013-12-10,57.6,33.0,18.5,18.3,2.9,-6.0,39,28,18,30.48,29.74,5,-121,13,0.00
2013-12-11,50.4,26.3,13.5,20.7,5.9,-2.6,53,42,27,30.68,30.15,4,-607,7,0.00
2013-12-12,70.9,37.0,20.8,23.5,9.2,2.5,50,34,13,30.58,30.10,3,-658,6,0.00
2013-12-13,62.2,37.1,25.7,18.3,7.6,1.6,41,30,16,30.31,29.66,5,-627,11,0.00
2013-12-14,53.1,35.5,23.9,14.2,7.3,1.6,46,32,18,30.51,30.09,6,-543,12,0.00
2013-12-15,58.3,47.3,37.2,19.4,9.9,2.1,29,22,16,30.24,29.99,5,-194,26,0.00
2013-12-16,73.2,52.1,40.1,16.7,8.4,0.0,23,17,11,30.35,29.83,7,-117,20,0.00
2013-12-17,68.2,49.9,34.5,15.4,6.9,-2.0,24,18,12,30.43,29.95,5,-165,14,0.00
2013-12-18,75.2,57.4,47.5,16.0,9.0,3.7,17,14,10,30.03,29.50,6,-283,14,0.00
2013-12-19,59.9,38.6,18.5,23.0,8.2,-0.8,52,30,17,30.19,29.39,6,-263,16,0.00
2013-12-20,28.6,20.8,17.1,14.0,8.0,3.2,65,57,52,30.21,29.84,3,-607,6,0.00
2013-12-21,43.5,26.3,14.7,23.0,13.2,6.3,75,59,39,30.14,29.58,5,-534,10,0.00
2013-12-22,45.1,28.5,16.7,18.3,10.1,4.6,73,49,26,30.47,29.92,8,-257,15,0.00
2013-12-23,54.1,33.1,19.0,23.4,12.1,6.3,64,44,26,30.58,30.09,4,-335,15,0.00
2013-12-24,56.8,42.3,26.2,21.4,11.6,-0.4,31,28,19,30.49,29.89,7,-287,20,0.00
2013-12-25,60.8,34.0,21.2,12.2,1.2,-7.4,40,26,14,30.67,30.08,5,-502,12,0.00
2013-12-26,67.8,45.8,29.7,13.5,1.9,-99.9,25,18,12,30.38,29.99,6,-333,13,0.00
2013-12-27,73.6,45.1,30.7,24.3,9.6,1.8,34,25,11,30.41,29.87,3,-880,6,0.00
2013-12-28,63.7,43.5,35.4,25.2,11.8,7.5,32,28,17,30.16,29.64,8,-569,18,0.00